KJCT/JCT METAR and TAF weather

Enter ICAO airport designator
Station Type Date Time Source
KJCT METAR 2020/04/04 10:58 UTC NOAA

KJCT 041058Z AUTO 07005KT 10SM -RA BKN008 OVC090 07/06 A3001 RMK AO2 LTG DSNT ALQDS P0000 T00670061


Station Type Date Time Source
KJCT Decoded METAR 2020/04/04 10:58 UTC NOAA

KIMBLE COUNTY AIRPORT, TX, United States (KJCT) 30-31N 099-46W 523M
Apr 04, 2020 - 06:58 AM EDT / 2020.04.04 1058 UTC
Wind: from the ENE (070 degrees) at 6 MPH (5 KT):0
Visibility: 10 mile(s):0
Sky conditions: overcast
Weather: light rain; Lightning observed
Precipitation last hour: A trace
Temperature: 44.1 F (6.7 C)
Dew Point: 43.0 F (6.1 C)
Relative Humidity: 95%
Pressure (altimeter): 30.01 in. Hg (1016 hPa)
ob: KJCT 041058Z AUTO 07005KT 10SM -RA BKN008 OVC090 07/06 A3001 RMK AO2 LTG DSNT ALQDS P0000 T00670061
cycle: 11

Station Type Date Time Source
KJCT TAF 2020/04/04 12:22 UTC NOAA

TAF KJCT 041120Z 0412/0512 03010KT 5SM -RA BR VCTS OVC008CB
TEMPO 0412/0414 2SM -TSRA BKN004CB
FM042200 01005KT P6SM OVC012
FM050300 05007KT P6SM OVC008

Example: see airport list